sensor_id;sensor_type;location;lat;lon;timestamp;pressure;altitude;pressure_sealevel;temperature;humidity
68654;BME280;55636;51.108;13.622;2023-11-19T00:00:44;100385.59;;;4.01;61.83
68654;BME280;55636;51.108;13.622;2023-11-19T00:01:54;100380.72;;;4.03;61.82
68654;BME280;55636;51.108;13.622;2023-11-19T00:02:57;100374.44;;;4.03;61.85
68654;BME280;55636;51.108;13.622;2023-11-19T00:03:59;100364.34;;;4.03;61.98
68654;BME280;55636;51.108;13.622;2023-11-19T00:05:02;100359.94;;;4.02;62.01
68654;BME280;55636;51.108;13.622;2023-11-19T00:06:05;100368.97;;;4.03;62.03
68654;BME280;55636;51.108;13.622;2023-11-19T00:07:07;100372.75;;;4.02;62.02
68654;BME280;55636;51.108;13.622;2023-11-19T00:08:12;100359.94;;;4.02;62.07
68654;BME280;55636;51.108;13.622;2023-11-19T00:09:15;100355.31;;;4.03;62.22
68654;BME280;55636;51.108;13.622;2023-11-19T00:10:19;100351.75;;;4.02;62.22
68654;BME280;55636;51.108;13.622;2023-11-19T00:11:23;100342.69;;;4.02;62.25
68654;BME280;55636;51.108;13.622;2023-11-19T00:12:25;100348.16;;;4.02;62.12
68654;BME280;55636;51.108;13.622;2023-11-19T00:13:27;100350.28;;;4.00;62.27
68654;BME280;55636;51.108;13.622;2023-11-19T00:14:30;100350.06;;;4.01;62.15
68654;BME280;55636;51.108;13.622;2023-11-19T00:15:32;100346.47;;;4.01;62.23
68654;BME280;55636;51.108;13.622;2023-11-19T00:16:35;100338.69;;;4.04;62.14
68654;BME280;55636;51.108;13.622;2023-11-19T00:17:42;100340.38;;;4.05;62.18
68654;BME280;55636;51.108;13.622;2023-11-19T00:18:48;100349.38;;;4.06;62.12
68654;BME280;55636;51.108;13.622;2023-11-19T00:19:52;100342.06;;;4.06;62.20
68654;BME280;55636;51.108;13.622;2023-11-19T00:20:54;100344.78;;;4.06;62.19
68654;BME280;55636;51.108;13.622;2023-11-19T00:21:57;100351.94;;;4.07;62.04
68654;BME280;55636;51.108;13.622;2023-11-19T00:22:59;100350.03;;;4.08;62.24
68654;BME280;55636;51.108;13.622;2023-11-19T00:24:03;100341.81;;;4.08;62.25
68654;BME280;55636;51.108;13.622;2023-11-19T00:25:07;100340.13;;;4.07;62.23
68654;BME280;55636;51.108;13.622;2023-11-19T00:26:09;100339.09;;;4.08;62.13
68654;BME280;55636;51.108;13.622;2023-11-19T00:27:14;100334.25;;;4.10;62.01
68654;BME280;55636;51.108;13.622;2023-11-19T00:28:18;100317.00;;;4.09;61.87
68654;BME280;55636;51.108;13.622;2023-11-19T00:29:20;100327.09;;;4.09;62.03
68654;BME280;55636;51.108;13.622;2023-11-19T00:30:23;100325.41;;;4.08;62.14
68654;BME280;55636;51.108;13.622;2023-11-19T00:31:25;100328.16;;;4.08;62.07
68654;BME280;55636;51.108;13.622;2023-11-19T00:32:30;100330.66;;;4.09;62.17
68654;BME280;55636;51.108;13.622;2023-11-19T00:33:32;100322.25;;;4.11;62.15
68654;BME280;55636;51.108;13.622;2023-11-19T00:34:35;100327.94;;;4.09;62.36
68654;BME280;55636;51.108;13.622;2023-11-19T00:35:37;100313.22;;;4.11;62.22
68654;BME280;55636;51.108;13.622;2023-11-19T00:36:40;100325.84;;;4.12;62.46
68654;BME280;55636;51.108;13.622;2023-11-19T00:37:43;100331.06;;;4.13;62.39
68654;BME280;55636;51.108;13.622;2023-11-19T00:38:45;100331.28;;;4.12;62.33
68654;BME280;55636;51.108;13.622;2023-11-19T00:39:48;100331.28;;;4.12;62.23
68654;BME280;55636;51.108;13.622;2023-11-19T00:40:51;100322.69;;;4.08;62.04
68654;BME280;55636;51.108;13.622;2023-11-19T00:41:54;100318.03;;;4.08;62.09
68654;BME280;55636;51.108;13.622;2023-11-19T00:42:56;100324.78;;;4.13;62.03
68654;BME280;55636;51.108;13.622;2023-11-19T00:44:01;100313.22;;;4.11;61.99
68654;BME280;55636;51.108;13.622;2023-11-19T00:45:04;100315.94;;;4.11;61.94
68654;BME280;55636;51.108;13.622;2023-11-19T00:46:12;100300.81;;;4.08;61.94
68654;BME280;55636;51.108;13.622;2023-11-19T00:47:16;100315.13;;;4.10;61.99
68654;BME280;55636;51.108;13.622;2023-11-19T00:48:18;100313.00;;;4.12;61.81
68654;BME280;55636;51.108;13.622;2023-11-19T00:49:21;100313.84;;;4.13;61.78
68654;BME280;55636;51.108;13.622;2023-11-19T00:50:23;100317.22;;;4.08;61.77
68654;BME280;55636;51.108;13.622;2023-11-19T00:51:25;100298.91;;;4.08;61.66
68654;BME280;55636;51.108;13.622;2023-11-19T00:52:28;100299.13;;;4.07;61.92
68654;BME280;55636;51.108;13.622;2023-11-19T00:53:32;100283.78;;;4.06;61.60
68654;BME280;55636;51.108;13.622;2023-11-19T00:54:36;100281.28;;;4.04;61.78
68654;BME280;55636;51.108;13.622;2023-11-19T00:55:38;100288.66;;;4.04;61.65
68654;BME280;55636;51.108;13.622;2023-11-19T00:56:48;100280.88;;;4.01;61.76
68654;BME280;55636;51.108;13.622;2023-11-19T00:57:50;100280.88;;;4.01;61.83
68654;BME280;55636;51.108;13.622;2023-11-19T00:58:53;100285.97;;;3.97;61.75
68654;BME280;55636;51.108;13.622;2023-11-19T00:59:55;100289.06;;;4.01;61.66
68654;BME280;55636;51.108;13.622;2023-11-19T01:00:57;100272.88;;;3.99;61.74
68654;BME280;55636;51.108;13.622;2023-11-19T01:02:00;100267.19;;;4.01;61.62
68654;BME280;55636;51.108;13.622;2023-11-19T01:03:06;100260.28;;;3.98;61.68
68654;BME280;55636;51.108;13.622;2023-11-19T01:04:09;100257.75;;;3.97;61.93
68654;BME280;55636;51.108;13.622;2023-11-19T01:05:12;100257.75;;;3.97;61.69
68654;BME280;55636;51.108;13.622;2023-11-19T01:06:29;100243.69;;;3.93;61.83
68654;BME280;55636;51.108;13.622;2023-11-19T01:07:32;100242.88;;;3.92;61.63
68654;BME280;55636;51.108;13.622;2023-11-19T01:08:35;100231.72;;;3.94;61.77
68654;BME280;55636;51.108;13.622;2023-11-19T01:09:38;100225.41;;;3.94;61.75
68654;BME280;55636;51.108;13.622;2023-11-19T01:10:41;100224.38;;;3.95;61.70
68654;BME280;55636;51.108;13.622;2023-11-19T01:11:43;100236.13;;;3.95;61.84
68654;BME280;55636;51.108;13.622;2023-11-19T01:12:46;100236.94;;;3.96;61.84
68654;BME280;55636;51.108;13.622;2023-11-19T01:13:50;100233.78;;;3.99;61.89
68654;BME280;55636;51.108;13.622;2023-11-19T01:14:53;100227.91;;;3.95;61.91
68654;BME280;55636;51.108;13.622;2023-11-19T01:15:55;100225.19;;;3.95;61.85
68654;BME280;55636;51.108;13.622;2023-11-19T01:16:58;100221.63;;;3.95;61.91
68654;BME280;55636;51.108;13.622;2023-11-19T01:18:01;100209.84;;;3.94;61.98
68654;BME280;55636;51.108;13.622;2023-11-19T01:19:07;100215.06;;;3.96;61.86
68654;BME280;55636;51.108;13.622;2023-11-19T01:20:19;100217.00;;;3.95;61.86
68654;BME280;55636;51.108;13.622;2023-11-19T01:21:23;100217.81;;;3.96;62.03
68654;BME280;55636;51.108;13.622;2023-11-19T01:22:26;100217.00;;;3.95;61.88
68654;BME280;55636;51.108;13.622;2023-11-19T01:23:28;100223.09;;;3.97;61.86
68654;BME280;55636;51.108;13.622;2023-11-19T01:24:31;100212.97;;;3.98;61.77
68654;BME280;55636;51.108;13.622;2023-11-19T01:25:33;100219.28;;;3.98;61.88
68654;BME280;55636;51.108;13.622;2023-11-19T01:26:36;100211.94;;;3.99;61.98
68654;BME280;55636;51.108;13.622;2023-11-19T01:27:39;100218.22;;;3.99;61.93
68654;BME280;55636;51.108;13.622;2023-11-19T01:28:41;100212.53;;;4.01;61.87
68654;BME280;55636;51.108;13.622;2023-11-19T01:29:50;100201.00;;;3.99;61.93
68654;BME280;55636;51.108;13.622;2023-11-19T01:30:52;100207.06;;;4.01;61.78
68654;BME280;55636;51.108;13.622;2023-11-19T01:31:55;100203.72;;;3.99;61.94
68654;BME280;55636;51.108;13.622;2023-11-19T01:32:57;100200.13;;;3.98;61.91
68654;BME280;55636;51.108;13.622;2023-11-19T01:34:00;100199.09;;;3.99;61.72
68654;BME280;55636;51.108;13.622;2023-11-19T01:35:03;100189.00;;;4.00;61.91
68654;BME280;55636;51.108;13.622;2023-11-19T01:36:07;100188.38;;;3.98;61.87
68654;BME280;55636;51.108;13.622;2023-11-19T01:37:10;100186.69;;;3.97;61.97
68654;BME280;55636;51.108;13.622;2023-11-19T01:38:14;100181.00;;;3.98;62.04
68654;BME280;55636;51.108;13.622;2023-11-19T01:39:16;100179.94;;;3.99;61.94
68654;BME280;55636;51.108;13.622;2023-11-19T01:40:22;100178.28;;;3.98;61.99
68654;BME280;55636;51.108;13.622;2023-11-19T01:41:25;100173.88;;;3.97;62.00
68654;BME280;55636;51.108;13.622;2023-11-19T01:42:27;100166.50;;;3.98;61.88
68654;BME280;55636;51.108;13.622;2023-11-19T01:43:37;100161.03;;;3.98;61.92
68654;BME280;55636;51.108;13.622;2023-11-19T01:44:40;100172.81;;;3.98;61.86
68654;BME280;55636;51.108;13.622;2023-11-19T01:45:43;100166.06;;;4.01;61.89
68654;BME280;55636;51.108;13.622;2023-11-19T01:46:46;100159.53;;;4.02;61.85
68654;BME280;55636;51.108;13.622;2023-11-19T01:47:52;100155.75;;;4.03;61.87
68654;BME280;55636;51.108;13.622;2023-11-19T01:48:54;100154.06;;;4.02;61.87
68654;BME280;55636;51.108;13.622;2023-11-19T01:49:58;100149.28;;;3.97;61.82
68654;BME280;55636;51.108;13.622;2023-11-19T01:51:01;100149.06;;;3.99;61.85
68654;BME280;55636;51.108;13.622;2023-11-19T01:52:05;100150.75;;;4.00;61.75
68654;BME280;55636;51.108;13.622;2023-11-19T01:53:08;100144.19;;;4.01;61.76
68654;BME280;55636;51.108;13.622;2023-11-19T01:54:11;100137.06;;;4.00;61.81
68654;BME280;55636;51.108;13.622;2023-11-19T01:55:14;100133.72;;;3.98;62.00
68654;BME280;55636;51.108;13.622;2023-11-19T01:56:16;100135.81;;;3.96;62.09
68654;BME280;55636;51.108;13.622;2023-11-19T01:57:20;100127.41;;;3.97;62.02
68654;BME280;55636;51.108;13.622;2023-11-19T01:58:24;100122.78;;;3.98;61.99
68654;BME280;55636;51.108;13.622;2023-11-19T01:59:26;100116.50;;;3.97;62.10
68654;BME280;55636;51.108;13.622;2023-11-19T02:00:30;100126.13;;;4.00;62.01
68654;BME280;55636;51.108;13.622;2023-11-19T02:01:33;100117.72;;;4.01;62.05
68654;BME280;55636;51.108;13.622;2023-11-19T02:02:40;100113.28;;;4.00;62.03
68654;BME280;55636;51.108;13.622;2023-11-19T02:03:44;100109.50;;;4.01;62.14
68654;BME280;55636;51.108;13.622;2023-11-19T02:04:49;100105.56;;;3.97;62.11
68654;BME280;55636;51.108;13.622;2023-11-19T02:05:51;100107.19;;;3.98;62.14
68654;BME280;55636;51.108;13.622;2023-11-19T02:06:56;100100.69;;;3.99;62.24
68654;BME280;55636;51.108;13.622;2023-11-19T02:08:00;100104.03;;;4.01;62.05
68654;BME280;55636;51.108;13.622;2023-11-19T02:09:03;100097.72;;;4.01;62.12
68654;BME280;55636;51.108;13.622;2023-11-19T02:10:10;100102.13;;;4.02;62.17
68654;BME280;55636;51.108;13.622;2023-11-19T02:11:15;100087.41;;;4.03;62.15
68654;BME280;55636;51.108;13.622;2023-11-19T02:12:18;100091.66;;;3.99;62.30
68654;BME280;55636;51.108;13.622;2023-11-19T02:13:24;100083.69;;;3.97;62.38
68654;BME280;55636;51.108;13.622;2023-11-19T02:14:27;100081.56;;;3.99;62.39
68654;BME280;55636;51.108;13.622;2023-11-19T02:15:30;100087.88;;;4.00;62.40
68654;BME280;55636;51.108;13.622;2023-11-19T02:16:33;100078.59;;;4.01;62.34
68654;BME280;55636;51.108;13.622;2023-11-19T02:17:37;100068.50;;;4.01;62.42
68654;BME280;55636;51.108;13.622;2023-11-19T02:18:40;100068.75;;;4.00;62.35
68654;BME280;55636;51.108;13.622;2023-11-19T02:19:42;100060.97;;;3.97;62.43
68654;BME280;55636;51.108;13.622;2023-11-19T02:20:45;100054.22;;;3.99;62.43
68654;BME280;55636;51.108;13.622;2023-11-19T02:21:50;100049.81;;;3.98;62.64
68654;BME280;55636;51.108;13.622;2023-11-19T02:22:53;100054.44;;;3.98;62.58
68654;BME280;55636;51.108;13.622;2023-11-19T02:23:55;100045.19;;;3.99;62.54
68654;BME280;55636;51.108;13.622;2023-11-19T02:25:19;100042.47;;;3.99;62.56
68654;BME280;55636;51.108;13.622;2023-11-19T02:26:32;100039.72;;;3.99;62.77
68654;BME280;55636;51.108;13.622;2023-11-19T02:27:44;100043.06;;;4.01;62.63
68654;BME280;55636;51.108;13.622;2023-11-19T02:28:47;100031.06;;;4.02;62.59
68654;BME280;55636;51.108;13.622;2023-11-19T02:29:50;100031.69;;;4.04;62.73
68654;BME280;55636;51.108;13.622;2023-11-19T02:30:53;100030.63;;;4.05;62.71
68654;BME280;55636;51.108;13.622;2023-11-19T02:31:55;100030.00;;;4.03;62.79
68654;BME280;55636;51.108;13.622;2023-11-19T02:33:00;100030.00;;;4.03;62.68
68654;BME280;55636;51.108;13.622;2023-11-19T02:34:10;100032.75;;;4.03;62.80
68654;BME280;55636;51.108;13.622;2023-11-19T02:35:14;100037.59;;;4.01;62.92
68654;BME280;55636;51.108;13.622;2023-11-19T02:36:17;100030.25;;;4.01;62.87
68654;BME280;55636;51.108;13.622;2023-11-19T02:37:20;100019.31;;;4.01;62.90
68654;BME280;55636;51.108;13.622;2023-11-19T02:38:22;100023.47;;;4.04;62.85
68654;BME280;55636;51.108;13.622;2023-11-19T02:39:24;100021.81;;;4.03;62.80
68654;BME280;55636;51.108;13.622;2023-11-19T02:40:29;100013.59;;;4.03;63.13
68654;BME280;55636;51.108;13.622;2023-11-19T02:41:31;100023.47;;;4.04;63.03
68654;BME280;55636;51.108;13.622;2023-11-19T02:42:34;100018.84;;;4.04;62.90
68654;BME280;55636;51.108;13.622;2023-11-19T02:43:37;100023.25;;;4.05;63.15
68654;BME280;55636;51.108;13.622;2023-11-19T02:44:44;100015.88;;;4.06;62.95
68654;BME280;55636;51.108;13.622;2023-11-19T02:45:46;100016.72;;;4.06;63.04
68654;BME280;55636;51.108;13.622;2023-11-19T02:46:49;100015.88;;;4.06;63.04
68654;BME280;55636;51.108;13.622;2023-11-19T02:47:52;99998.19;;;4.08;63.07
68654;BME280;55636;51.108;13.622;2023-11-19T02:48:54;100005.09;;;4.11;63.01
68654;BME280;55636;51.108;13.622;2023-11-19T02:49:58;100001.53;;;4.11;63.07
68654;BME280;55636;51.108;13.622;2023-11-19T02:51:04;100002.16;;;4.13;62.92
68654;BME280;55636;51.108;13.622;2023-11-19T02:52:07;99998.56;;;4.12;62.94
68654;BME280;55636;51.108;13.622;2023-11-19T02:53:12;100001.94;;;4.14;63.01
68654;BME280;55636;51.108;13.622;2023-11-19T02:54:15;100002.53;;;4.16;62.80
68654;BME280;55636;51.108;13.622;2023-11-19T02:55:19;99993.28;;;4.17;62.93
68654;BME280;55636;51.108;13.622;2023-11-19T02:56:21;99987.34;;;4.20;62.74
68654;BME280;55636;51.108;13.622;2023-11-19T02:57:36;99976.63;;;4.19;62.83
68654;BME280;55636;51.108;13.622;2023-11-19T02:58:39;99984.59;;;4.20;62.89
68654;BME280;55636;51.108;13.622;2023-11-19T02:59:42;99976.19;;;4.22;62.72
68654;BME280;55636;51.108;13.622;2023-11-19T03:00:45;99979.53;;;4.24;62.78
68654;BME280;55636;51.108;13.622;2023-11-19T03:01:59;99973.00;;;4.25;62.77
68654;BME280;55636;51.108;13.622;2023-11-19T03:03:02;99968.16;;;4.27;62.68
68654;BME280;55636;51.108;13.622;2023-11-19T03:04:12;99961.00;;;4.26;62.71
68654;BME280;55636;51.108;13.622;2023-11-19T03:05:19;99956.97;;;4.29;62.92
68654;BME280;55636;51.108;13.622;2023-11-19T03:06:22;99955.91;;;4.30;62.75
68654;BME280;55636;51.108;13.622;2023-11-19T03:07:24;99947.72;;;4.30;62.91
68654;BME280;55636;51.108;13.622;2023-11-19T03:08:26;99950.44;;;4.30;62.85
68654;BME280;55636;51.108;13.622;2023-11-19T03:09:29;99951.03;;;4.32;62.89
68654;BME280;55636;51.108;13.622;2023-11-19T03:10:32;99944.50;;;4.33;62.90
68654;BME280;55636;51.108;13.622;2023-11-19T03:11:34;99943.69;;;4.32;62.89
68654;BME280;55636;51.108;13.622;2023-11-19T03:12:37;99949.75;;;4.34;62.73
68654;BME280;55636;51.108;13.622;2023-11-19T03:13:39;99942.38;;;4.35;62.76
68654;BME280;55636;51.108;13.622;2023-11-19T03:14:42;99939.66;;;4.35;62.65
68654;BME280;55636;51.108;13.622;2023-11-19T03:15:45;99932.91;;;4.37;62.71
68654;BME280;55636;51.108;13.622;2023-11-19T03:16:48;99937.75;;;4.35;62.72
68654;BME280;55636;51.108;13.622;2023-11-19T03:17:51;99932.03;;;4.37;62.82
68654;BME280;55636;51.108;13.622;2023-11-19T03:18:54;99929.06;;;4.38;62.81
68654;BME280;55636;51.108;13.622;2023-11-19T03:19:58;99933.25;;;4.41;62.71
68654;BME280;55636;51.108;13.622;2023-11-19T03:21:00;99936.59;;;4.43;62.67
68654;BME280;55636;51.108;13.622;2023-11-19T03:22:03;99922.91;;;4.43;62.59
68654;BME280;55636;51.108;13.622;2023-11-19T03:23:06;99921.88;;;4.44;62.63
68654;BME280;55636;51.108;13.622;2023-11-19T03:24:09;99912.56;;;4.45;62.52
68654;BME280;55636;51.108;13.622;2023-11-19T03:25:11;99908.19;;;4.44;62.39
68654;BME280;55636;51.108;13.622;2023-11-19T03:26:15;99907.72;;;4.47;62.48
68654;BME280;55636;51.108;13.622;2023-11-19T03:27:17;99903.91;;;4.48;62.56
68654;BME280;55636;51.108;13.622;2023-11-19T03:28:19;99909.38;;;4.48;62.59
68654;BME280;55636;51.108;13.622;2023-11-19T03:29:22;99905.59;;;4.49;62.55
68654;BME280;55636;51.108;13.622;2023-11-19T03:30:25;99908.91;;;4.51;62.45
68654;BME280;55636;51.108;13.622;2023-11-19T03:31:35;99910.59;;;4.52;62.45
68654;BME280;55636;51.108;13.622;2023-11-19T03:32:38;99912.28;;;4.53;62.53
68654;BME280;55636;51.108;13.622;2023-11-19T03:33:41;99902.16;;;4.54;62.40
68654;BME280;55636;51.108;13.622;2023-11-19T03:34:43;99904.88;;;4.54;62.30
68654;BME280;55636;51.108;13.622;2023-11-19T03:35:46;99903.81;;;4.55;62.45
68654;BME280;55636;51.108;13.622;2023-11-19T03:36:49;99893.69;;;4.55;62.33
68654;BME280;55636;51.108;13.622;2023-11-19T03:37:51;99893.69;;;4.55;62.41
68654;BME280;55636;51.108;13.622;2023-11-19T03:38:54;99897.06;;;4.57;62.39
68654;BME280;55636;51.108;13.622;2023-11-19T03:39:57;99888.03;;;4.57;62.25
68654;BME280;55636;51.108;13.622;2023-11-19T03:41:11;99890.75;;;4.57;62.42
68654;BME280;55636;51.108;13.622;2023-11-19T03:42:13;99888.59;;;4.59;62.32
68654;BME280;55636;51.108;13.622;2023-11-19T03:43:16;99882.31;;;4.58;62.25
68654;BME280;55636;51.108;13.622;2023-11-19T03:44:18;99878.53;;;4.60;62.30
68654;BME280;55636;51.108;13.622;2023-11-19T03:45:21;99879.34;;;4.60;62.21
68654;BME280;55636;51.108;13.622;2023-11-19T03:46:24;99867.56;;;4.60;62.17
68654;BME280;55636;51.108;13.622;2023-11-19T03:47:26;99874.69;;;4.61;62.24
68654;BME280;55636;51.108;13.622;2023-11-19T03:48:29;99871.13;;;4.60;62.48
68654;BME280;55636;51.108;13.622;2023-11-19T03:49:32;99857.22;;;4.62;62.25
68654;BME280;55636;51.108;13.622;2023-11-19T03:50:34;99866.03;;;4.64;62.32
68654;BME280;55636;51.108;13.622;2023-11-19T03:51:37;99859.94;;;4.62;62.41
68654;BME280;55636;51.108;13.622;2023-11-19T03:52:39;99864.13;;;4.64;62.16
68654;BME280;55636;51.108;13.622;2023-11-19T03:53:45;99854.25;;;4.63;62.13
68654;BME280;55636;51.108;13.622;2023-11-19T03:54:48;99846.03;;;4.63;62.06
68654;BME280;55636;51.108;13.622;2023-11-19T03:55:50;99861.38;;;4.64;62.08
68654;BME280;55636;51.108;13.622;2023-11-19T03:56:53;99857.81;;;4.64;62.07
68654;BME280;55636;51.108;13.622;2023-11-19T03:57:55;99852.13;;;4.65;62.22
68654;BME280;55636;51.108;13.622;2023-11-19T03:58:58;99854.63;;;4.67;62.11
68654;BME280;55636;51.108;13.622;2023-11-19T04:00:01;99839.25;;;4.66;62.19
68654;BME280;55636;51.108;13.622;2023-11-19T04:01:13;99836.28;;;4.67;62.20
68654;BME280;55636;51.108;13.622;2023-11-19T04:02:17;99844.50;;;4.67;62.23
68654;BME280;55636;51.108;13.622;2023-11-19T04:03:19;99837.59;;;4.65;62.19
68654;BME280;55636;51.108;13.622;2023-11-19T04:04:22;99832.72;;;4.67;62.14
68654;BME280;55636;51.108;13.622;2023-11-19T04:05:24;99834.41;;;4.68;62.14
68654;BME280;55636;51.108;13.622;2023-11-19T04:06:27;99821.53;;;4.68;62.09
68654;BME280;55636;51.108;13.622;2023-11-19T04:07:29;99824.28;;;4.68;62.15
68654;BME280;55636;51.108;13.622;2023-11-19T04:08:31;99828.94;;;4.68;62.08
68654;BME280;55636;51.108;13.622;2023-11-19T04:09:34;99840.44;;;4.70;61.98
68654;BME280;55636;51.108;13.622;2023-11-19T04:10:36;99826.78;;;4.70;61.96
68654;BME280;55636;51.108;13.622;2023-11-19T04:11:39;99826.56;;;4.71;62.10
68654;BME280;55636;51.108;13.622;2023-11-19T04:12:42;99833.91;;;4.71;62.10
68654;BME280;55636;51.108;13.622;2023-11-19T04:13:46;99832.84;;;4.72;61.94
68654;BME280;55636;51.108;13.622;2023-11-19T04:14:48;99833.69;;;4.72;62.05
68654;BME280;55636;51.108;13.622;2023-11-19T04:16:02;99835.13;;;4.75;61.94
68654;BME280;55636;51.108;13.622;2023-11-19T04:17:05;99840.59;;;4.75;61.96
68654;BME280;55636;51.108;13.622;2023-11-19T04:18:07;99834.06;;;4.76;61.89
68654;BME280;55636;51.108;13.622;2023-11-19T04:19:11;99826.47;;;4.78;61.90
68654;BME280;55636;51.108;13.622;2023-11-19T04:20:14;99827.28;;;4.79;61.88
68654;BME280;55636;51.108;13.622;2023-11-19T04:21:17;99825.38;;;4.79;61.79
68654;BME280;55636;51.108;13.622;2023-11-19T04:22:19;99827.28;;;4.79;61.99
68654;BME280;55636;51.108;13.622;2023-11-19T04:23:22;99819.69;;;4.81;62.07
68654;BME280;55636;51.108;13.622;2023-11-19T04:24:24;99822.41;;;4.81;61.90
68654;BME280;55636;51.108;13.622;2023-11-19T04:25:26;99826.81;;;4.82;62.08
68654;BME280;55636;51.108;13.622;2023-11-19T04:26:29;99823.47;;;4.80;62.23
68654;BME280;55636;51.108;13.622;2023-11-19T04:27:33;99816.56;;;4.77;62.49
68654;BME280;55636;51.108;13.622;2023-11-19T04:28:36;99821.81;;;4.79;62.50
68654;BME280;55636;51.108;13.622;2023-11-19T04:29:38;99819.91;;;4.79;62.72
68654;BME280;55636;51.108;13.622;2023-11-19T04:30:40;99809.78;;;4.80;62.83
68654;BME280;55636;51.108;13.622;2023-11-19T04:31:43;99810.63;;;4.80;63.00
68654;BME280;55636;51.108;13.622;2023-11-19T04:32:46;99804.06;;;4.81;62.89
68654;BME280;55636;51.108;13.622;2023-11-19T04:33:51;99803.72;;;4.78;63.25
68654;BME280;55636;51.108;13.622;2023-11-19T04:34:54;99804.56;;;4.78;63.14
68654;BME280;55636;51.108;13.622;2023-11-19T04:35:56;99804.56;;;4.78;63.39
68654;BME280;55636;51.108;13.622;2023-11-19T04:36:59;99799.34;;;4.77;63.20
68654;BME280;55636;51.108;13.622;2023-11-19T04:38:14;99794.69;;;4.77;63.33
68654;BME280;55636;51.108;13.622;2023-11-19T04:39:17;99794.44;;;4.79;63.38
68654;BME280;55636;51.108;13.622;2023-11-19T04:40:21;99788.16;;;4.78;63.33
68654;BME280;55636;51.108;13.622;2023-11-19T04:41:25;99799.09;;;4.78;63.50
68654;BME280;55636;51.108;13.622;2023-11-19T04:42:30;99791.13;;;4.77;63.56
68654;BME280;55636;51.108;13.622;2023-11-19T04:43:34;99787.28;;;4.78;63.57
68654;BME280;55636;51.108;13.622;2023-11-19T04:44:37;99788.59;;;4.75;63.75
68654;BME280;55636;51.108;13.622;2023-11-19T04:45:39;99788.25;;;4.71;63.84
68654;BME280;55636;51.108;13.622;2023-11-19T04:46:42;99776.47;;;4.71;63.78
68654;BME280;55636;51.108;13.622;2023-11-19T04:47:46;99790.13;;;4.71;63.90
68654;BME280;55636;51.108;13.622;2023-11-19T04:48:49;99777.75;;;4.68;64.02
68654;BME280;55636;51.108;13.622;2023-11-19T04:49:52;99779.69;;;4.68;64.17
68654;BME280;55636;51.108;13.622;2023-11-19T04:50:54;99781.34;;;4.69;63.96
68654;BME280;55636;51.108;13.622;2023-11-19T04:51:56;99772.28;;;4.68;64.09
68654;BME280;55636;51.108;13.622;2023-11-19T04:52:59;99775.88;;;4.69;64.16
68654;BME280;55636;51.108;13.622;2023-11-19T04:54:02;99771.09;;;4.64;64.45
68654;BME280;55636;51.108;13.622;2023-11-19T04:55:05;99771.09;;;4.64;64.33
68654;BME280;55636;51.108;13.622;2023-11-19T04:56:09;99771.34;;;4.63;64.46
68654;BME280;55636;51.108;13.622;2023-11-19T04:57:11;99774.91;;;4.63;64.54
68654;BME280;55636;51.108;13.622;2023-11-19T04:58:14;99765.88;;;4.63;64.46
68654;BME280;55636;51.108;13.622;2023-11-19T04:59:17;99770.50;;;4.62;64.63
68654;BME280;55636;51.108;13.622;2023-11-19T05:00:19;99760.88;;;4.60;64.68
68654;BME280;55636;51.108;13.622;2023-11-19T05:01:25;99762.53;;;4.61;64.58
68654;BME280;55636;51.108;13.622;2023-11-19T05:02:27;99760.88;;;4.60;64.64
68654;BME280;55636;51.108;13.622;2023-11-19T05:03:31;99759.78;;;4.61;64.82
68654;BME280;55636;51.108;13.622;2023-11-19T05:04:34;99758.00;;;4.54;65.23
68654;BME280;55636;51.108;13.622;2023-11-19T05:05:36;99745.41;;;4.53;65.15
68654;BME280;55636;51.108;13.622;2023-11-19T05:06:39;99754.19;;;4.55;64.95
68654;BME280;55636;51.108;13.622;2023-11-19T05:07:41;99758.22;;;4.53;65.29
68654;BME280;55636;51.108;13.622;2023-11-19T05:08:44;99756.34;;;4.53;65.24
68654;BME280;55636;51.108;13.622;2023-11-19T05:09:46;99753.00;;;4.51;65.23
68654;BME280;55636;51.108;13.622;2023-11-19T05:10:49;99759.31;;;4.52;65.35
68654;BME280;55636;51.108;13.622;2023-11-19T05:11:51;99747.75;;;4.50;65.35
68654;BME280;55636;51.108;13.622;2023-11-19T05:12:53;99751.94;;;4.52;65.66
68654;BME280;55636;51.108;13.622;2023-11-19T05:13:58;99749.19;;;4.52;65.54
68654;BME280;55636;51.108;13.622;2023-11-19T05:15:00;99755.97;;;4.50;65.59
68654;BME280;55636;51.108;13.622;2023-11-19T05:16:03;99748.59;;;4.50;65.92
68654;BME280;55636;51.108;13.622;2023-11-19T05:17:06;99757.03;;;4.49;65.88
68654;BME280;55636;51.108;13.622;2023-11-19T05:18:10;99749.44;;;4.51;65.90
68654;BME280;55636;51.108;13.622;2023-11-19T05:19:12;99743.13;;;4.50;65.88
68654;BME280;55636;51.108;13.622;2023-11-19T05:20:16;99742.28;;;4.50;66.02
68654;BME280;55636;51.108;13.622;2023-11-19T05:21:18;99738.50;;;4.51;66.18
68654;BME280;55636;51.108;13.622;2023-11-19T05:22:21;99741.09;;;4.46;66.19
68654;BME280;55636;51.108;13.622;2023-11-19T05:23:24;99734.56;;;4.47;66.12
68654;BME280;55636;51.108;13.622;2023-11-19T05:24:26;99734.34;;;4.48;66.09
68654;BME280;55636;51.108;13.622;2023-11-19T05:25:28;99738.13;;;4.47;66.29
68654;BME280;55636;51.108;13.622;2023-11-19T05:26:32;99731.59;;;4.48;66.26
68654;BME280;55636;51.108;13.622;2023-11-19T05:27:35;99732.41;;;4.49;66.19
68654;BME280;55636;51.108;13.622;2023-11-19T05:28:38;99725.06;;;4.49;66.16
68654;BME280;55636;51.108;13.622;2023-11-19T05:29:41;99732.19;;;4.50;66.21
68654;BME280;55636;51.108;13.622;2023-11-19T05:30:45;99726.38;;;4.47;66.23
68654;BME280;55636;51.108;13.622;2023-11-19T05:31:47;99729.69;;;4.49;66.44
68654;BME280;55636;51.108;13.622;2023-11-19T05:32:50;99726.13;;;4.48;66.44
68654;BME280;55636;51.108;13.622;2023-11-19T05:33:52;99715.75;;;4.50;66.39
68654;BME280;55636;51.108;13.622;2023-11-19T05:34:54;99721.22;;;4.50;66.50